createdAt,value
2017-10-21T00:00:18.691Z,56.88
2017-10-21T00:01:18.679Z,56.88
2017-10-21T00:02:18.665Z,56.88
2017-10-21T00:03:18.650Z,57.17
2017-10-21T00:04:18.637Z,57.07
2017-10-21T00:05:18.623Z,57.17
2017-10-21T00:06:18.610Z,56.79
2017-10-21T00:07:18.596Z,56.69
2017-10-21T00:08:18.582Z,57.07
2017-10-21T00:09:18.568Z,56.69
2017-10-21T00:10:18.555Z,56.98
2017-10-21T00:11:18.540Z,56.88
2017-10-21T00:12:18.527Z,56.98
2017-10-21T00:13:18.513Z,56.98
2017-10-21T00:14:18.500Z,56.79
2017-10-21T00:15:18.484Z,56.98
2017-10-21T00:16:18.472Z,56.69
2017-10-21T00:17:18.463Z,56.98
2017-10-21T00:18:18.445Z,57.07
2017-10-21T00:19:18.431Z,56.79
2017-10-21T00:20:18.424Z,56.98
2017-10-21T00:21:18.404Z,56.79
2017-10-21T00:22:18.390Z,56.88
2017-10-21T00:23:18.375Z,56.59
2017-10-21T00:24:18.361Z,56.59
2017-10-21T00:25:18.349Z,56.59
2017-10-21T00:26:18.338Z,56.69
2017-10-21T00:27:18.324Z,57.07
2017-10-21T00:28:18.306Z,57.05
2017-10-21T00:29:18.296Z,57.05
2017-10-21T00:30:18.280Z,56.85
2017-10-21T00:31:18.265Z,56.98
2017-10-21T00:32:18.250Z,57.05
2017-10-21T00:33:18.237Z,57.24
2017-10-21T00:34:18.224Z,57.27
2017-10-21T00:35:18.210Z,57.05
2017-10-21T00:36:18.196Z,57.05
2017-10-21T00:37:18.183Z,57.14
2017-10-21T00:38:18.168Z,57.27
2017-10-21T00:39:18.159Z,57.37
2017-10-21T00:40:18.141Z,57.05
2017-10-21T00:41:18.129Z,57.85
2017-10-21T00:42:18.114Z,57.05
2017-10-21T00:43:18.099Z,57.24
2017-10-21T00:44:18.084Z,57.14
2017-10-21T00:45:18.072Z,57.14
2017-10-21T00:46:18.059Z,57.65
2017-10-21T00:47:18.043Z,57.14
2017-10-21T00:48:18.030Z,57.14
2017-10-21T00:49:18.016Z,57.37
2017-10-21T00:50:18.003Z,57.24
2017-10-21T00:51:17.988Z,57.92
2017-10-21T00:52:17.974Z,57.17
2017-10-21T00:53:17.961Z,57.07
2017-10-21T00:54:17.947Z,57.14
2017-10-21T00:55:17.933Z,57.05
2017-10-21T00:56:17.918Z,57.05
2017-10-21T00:57:17.910Z,57.24
2017-10-21T00:58:17.893Z,57.07
2017-10-21T00:59:17.876Z,56.76
2017-10-21T01:00:17.864Z,57.07
2017-10-21T01:01:17.851Z,56.95
2017-10-21T01:02:17.837Z,56.88
2017-10-21T01:03:17.822Z,57.24
2017-10-21T01:04:17.808Z,56.76
2017-10-21T01:05:17.796Z,56.66
2017-10-21T01:06:17.781Z,56.66
2017-10-21T01:07:17.767Z,57.05
2017-10-21T01:08:17.754Z,56.57
2017-10-21T01:09:17.739Z,56.95
2017-10-21T01:10:17.726Z,56.76
2017-10-21T01:11:17.712Z,57.05
2017-10-21T01:12:17.697Z,57.05
2017-10-21T01:13:17.684Z,56.76
2017-10-21T01:14:17.670Z,56.88
2017-10-21T01:15:17.656Z,56.88
2017-10-21T01:16:17.642Z,56.95
2017-10-21T01:17:17.629Z,56.66
2017-10-21T01:18:17.614Z,56.95
2017-10-21T01:19:17.599Z,56.66
2017-10-21T01:20:17.587Z,56.66
2017-10-21T01:21:17.575Z,56.66
2017-10-21T01:22:17.560Z,56.85
2017-10-21T01:23:17.545Z,56.66
2017-10-21T01:24:17.531Z,57.07
2017-10-21T01:25:17.519Z,56.85
2017-10-21T01:26:17.505Z,57.05
2017-10-21T01:27:17.490Z,56.69
2017-10-21T01:28:17.476Z,56.98
2017-10-21T01:29:17.464Z,56.66
2017-10-21T01:30:17.450Z,56.95
2017-10-21T01:31:17.435Z,56.66
2017-10-21T01:32:17.421Z,56.57
2017-10-21T01:33:17.408Z,56.76
2017-10-21T01:34:17.395Z,56.76
2017-10-21T01:35:17.379Z,56.85
2017-10-21T01:36:17.367Z,56.57
2017-10-21T01:37:17.353Z,56.88
2017-10-21T01:38:17.340Z,56.88
2017-10-21T01:39:17.326Z,56.85
2017-10-21T01:40:17.312Z,56.85
2017-10-21T01:41:17.298Z,56.66
2017-10-21T01:42:17.285Z,56.59
2017-10-21T01:43:17.270Z,56.79
2017-10-21T01:44:17.256Z,57.05
2017-10-21T01:45:17.250Z,56.37
2017-10-21T01:46:17.230Z,56.76
2017-10-21T01:47:17.215Z,56.57
2017-10-21T01:48:17.202Z,56.57
2017-10-21T01:49:17.188Z,56.76
2017-10-21T01:50:17.175Z,56.76
2017-10-21T01:51:17.161Z,56.66
2017-10-21T01:52:17.147Z,56.76
2017-10-21T01:53:17.132Z,56.98
2017-10-21T01:54:17.127Z,56.85
2017-10-21T01:55:17.104Z,56.76
2017-10-21T01:56:17.095Z,56.11
2017-10-21T01:57:17.086Z,56.66
2017-10-21T01:58:17.065Z,56.47
2017-10-21T01:59:17.050Z,56.18
2017-10-21T02:00:17.036Z,56.47
2017-10-21T02:01:17.024Z,56.40
2017-10-21T02:02:17.009Z,56.76
2017-10-21T02:03:16.995Z,56.27
2017-10-21T02:04:16.981Z,56.79
2017-10-21T02:05:16.968Z,56.37
2017-10-21T02:06:16.954Z,56.69
2017-10-21T02:07:16.939Z,56.21
2017-10-21T02:08:16.926Z,56.40
2017-10-21T02:09:16.912Z,56.76
2017-10-21T02:10:16.898Z,56.66
2017-10-21T02:11:16.885Z,56.18
2017-10-21T02:12:16.871Z,56.27
2017-10-21T02:13:16.857Z,56.59
2017-10-21T02:14:16.844Z,56.69
2017-10-21T02:15:16.834Z,56.85
2017-10-21T02:16:16.816Z,56.57
2017-10-21T02:17:16.802Z,56.37
2017-10-21T02:18:16.789Z,56.59
2017-10-21T02:19:16.775Z,56.76
2017-10-21T02:20:16.761Z,55.99
2017-10-21T02:21:16.747Z,56.69
2017-10-21T02:22:16.733Z,56.59
2017-10-21T02:23:16.724Z,56.21
2017-10-21T02:24:16.705Z,55.89
2017-10-21T02:25:16.698Z,55.82
2017-10-21T02:26:16.678Z,55.79
2017-10-21T02:27:16.664Z,55.99
2017-10-21T02:28:16.650Z,56.40
2017-10-21T02:29:16.637Z,55.99
2017-10-21T02:30:16.625Z,55.82
2017-10-21T02:31:16.608Z,55.99
2017-10-21T02:32:16.595Z,55.70
2017-10-21T02:33:16.581Z,56.09
2017-10-21T02:34:16.568Z,56.09
2017-10-21T02:35:16.553Z,55.89
2017-10-21T02:36:16.540Z,55.79
2017-10-21T02:37:16.526Z,55.89
2017-10-21T02:38:16.514Z,55.34
2017-10-21T02:39:16.499Z,55.63
2017-10-21T02:40:16.485Z,55.99
2017-10-21T02:41:16.471Z,55.31
2017-10-21T02:42:16.457Z,55.22
2017-10-21T02:43:16.448Z,55.22
2017-10-21T02:44:16.430Z,55.92
2017-10-21T02:45:16.415Z,55.22
2017-10-21T02:46:16.403Z,55.41
2017-10-21T02:47:16.388Z,54.83
2017-10-21T02:48:16.378Z,54.64
2017-10-21T02:49:16.360Z,54.76
2017-10-21T02:50:16.347Z,54.64
2017-10-21T02:51:16.332Z,55.24
2017-10-21T02:52:16.319Z,55.02
2017-10-21T02:53:16.305Z,55.15
2017-10-21T02:54:16.291Z,55.22
2017-10-21T02:55:16.277Z,55.31
2017-10-21T02:56:16.262Z,54.93
2017-10-21T02:57:16.249Z,55.12
2017-10-21T02:58:16.238Z,55.22
2017-10-21T02:59:16.221Z,55.34
2017-10-21T03:00:16.208Z,55.22
2017-10-21T03:01:16.194Z,55.51
2017-10-21T03:02:16.181Z,55.44
2017-10-21T03:03:16.167Z,54.64
2017-10-21T03:04:16.152Z,55.22
2017-10-21T03:05:16.139Z,55.41
2017-10-21T03:06:16.126Z,54.86
2017-10-21T03:07:16.111Z,55.24
2017-10-21T03:08:16.098Z,55.24
2017-10-21T03:09:16.085Z,55.12
2017-10-21T03:10:16.097Z,55.41
2017-10-21T03:11:16.055Z,55.12
2017-10-21T03:12:16.042Z,54.76
2017-10-21T03:13:16.029Z,55.12
2017-10-21T03:14:16.014Z,55.15
2017-10-21T03:15:15.999Z,55.12
2017-10-21T03:16:15.993Z,55.31
2017-10-21T03:17:15.980Z,55.24
2017-10-21T03:18:15.959Z,55.22
2017-10-21T03:19:15.945Z,54.83
2017-10-21T03:20:15.931Z,54.54
2017-10-21T03:21:15.916Z,55.51
2017-10-21T03:22:15.904Z,55.12
2017-10-21T03:23:15.890Z,55.12
2017-10-21T03:24:15.877Z,55.54
2017-10-21T03:25:15.862Z,54.93
2017-10-21T03:26:15.848Z,55.41
2017-10-21T03:27:15.834Z,55.51
2017-10-21T03:28:15.820Z,54.44
2017-10-21T03:29:15.806Z,54.66
2017-10-21T03:30:15.794Z,54.74
2017-10-21T03:31:15.780Z,54.74
2017-10-21T03:32:15.764Z,54.64
2017-10-21T03:33:15.751Z,54.64
2017-10-21T03:34:15.738Z,55.51
2017-10-21T03:35:15.723Z,54.64
2017-10-21T03:36:15.709Z,54.66
2017-10-21T03:37:15.696Z,54.25
2017-10-21T03:38:15.682Z,54.64
2017-10-21T03:39:15.667Z,54.74
2017-10-21T03:40:15.654Z,54.64
2017-10-21T03:41:15.640Z,54.35
2017-10-21T03:42:15.626Z,54.76
2017-10-21T03:43:15.612Z,54.25
2017-10-21T03:44:15.598Z,54.86
2017-10-21T03:45:15.584Z,54.83
2017-10-21T03:46:15.571Z,54.74
2017-10-21T03:47:15.556Z,54.47
2017-10-21T03:48:15.542Z,54.66
2017-10-21T03:49:15.529Z,54.54
2017-10-21T03:50:15.518Z,53.96
2017-10-21T03:51:15.501Z,54.35
2017-10-21T03:52:15.491Z,54.66
2017-10-21T03:53:15.472Z,54.74
2017-10-21T03:54:15.460Z,53.61
2017-10-21T03:55:15.445Z,54.16
2017-10-21T03:56:15.432Z,54.35
2017-10-21T03:57:15.419Z,53.96
2017-10-21T03:58:15.405Z,54.93
2017-10-21T03:59:15.390Z,54.64
2017-10-21T04:00:15.377Z,54.54
2017-10-21T04:01:15.362Z,54.76
2017-10-21T04:02:15.348Z,54.64
2017-10-21T04:03:15.334Z,54.06
2017-10-21T04:04:15.320Z,54.35
2017-10-21T04:05:15.307Z,54.35
2017-10-21T04:06:15.294Z,54.44
2017-10-21T04:07:15.279Z,54.54
2017-10-21T04:08:15.265Z,54.74
2017-10-21T04:09:15.251Z,55.12
2017-10-21T04:10:15.237Z,54.93
2017-10-21T04:11:15.226Z,55.24
2017-10-21T04:12:15.209Z,54.54
2017-10-21T04:13:15.196Z,55.15
2017-10-21T04:14:15.182Z,55.24
2017-10-21T04:15:15.167Z,56.09
2017-10-21T04:16:15.154Z,54.35
2017-10-21T04:17:15.140Z,55.24
2017-10-21T04:18:15.125Z,55.54
2017-10-21T04:19:15.112Z,55.22
2017-10-21T04:20:15.098Z,54.83
2017-10-21T04:21:15.084Z,54.64
2017-10-21T04:22:15.071Z,55.15
2017-10-21T04:23:15.055Z,55.41
2017-10-21T04:24:15.042Z,55.02
2017-10-21T04:25:15.028Z,54.74
2017-10-21T04:26:15.014Z,54.93
2017-10-21T04:27:14.999Z,54.74
2017-10-21T04:28:14.987Z,55.54
2017-10-21T04:29:14.973Z,55.31
2017-10-21T04:30:14.959Z,55.22
2017-10-21T04:31:14.944Z,54.86
2017-10-21T04:32:14.932Z,54.74
2017-10-21T04:33:14.918Z,55.22
2017-10-21T04:34:14.904Z,55.12
2017-10-21T04:35:14.889Z,55.24
2017-10-21T04:36:14.875Z,55.44
2017-10-21T04:37:14.862Z,55.41
2017-10-21T04:38:14.854Z,55.12
2017-10-21T04:39:14.833Z,55.54
2017-10-21T04:40:14.820Z,54.96
2017-10-21T04:41:14.806Z,54.57
2017-10-21T04:42:14.793Z,54.96
2017-10-21T04:43:14.778Z,55.24
2017-10-21T04:44:14.764Z,54.44
2017-10-21T04:45:14.754Z,54.86
2017-10-21T04:46:14.737Z,56.11
2017-10-21T04:47:14.723Z,55.34
2017-10-21T04:48:14.709Z,55.24
2017-10-21T04:49:14.695Z,55.05
2017-10-21T04:50:14.682Z,55.44
2017-10-21T04:51:14.667Z,55.05
2017-10-21T04:52:14.657Z,55.82
2017-10-21T04:53:14.642Z,55.82
2017-10-21T04:54:14.626Z,55.44
2017-10-21T04:55:14.612Z,55.92
2017-10-21T04:56:14.598Z,56.01
2017-10-21T04:57:14.584Z,56.21
2017-10-21T04:58:14.571Z,55.92
2017-10-21T04:59:14.556Z,56.40
2017-10-21T05:00:14.543Z,56.01
2017-10-21T05:01:14.529Z,56.21
2017-10-21T05:02:14.515Z,56.21
2017-10-21T05:03:14.501Z,55.15
2017-10-21T05:04:14.486Z,55.15
2017-10-21T05:05:14.474Z,56.09
2017-10-21T05:06:14.460Z,55.73
2017-10-21T05:07:14.445Z,55.92
2017-10-21T05:08:14.438Z,56.01
2017-10-21T05:09:14.418Z,56.01
2017-10-21T05:10:14.405Z,54.96
2017-10-21T05:11:14.389Z,55.54
2017-10-21T05:12:14.376Z,56.09
2017-10-21T05:13:14.362Z,55.73
2017-10-21T05:14:14.350Z,55.73
2017-10-21T05:15:14.334Z,55.22
2017-10-21T05:16:14.321Z,55.63
2017-10-21T05:17:14.307Z,55.54
2017-10-21T05:18:14.294Z,55.31
2017-10-21T05:19:14.278Z,55.99
2017-10-21T05:20:14.265Z,55.60
2017-10-21T05:21:14.251Z,55.60
2017-10-21T05:22:14.238Z,55.15
2017-10-21T05:23:14.222Z,55.12
2017-10-21T05:24:14.210Z,55.60
2017-10-21T05:25:14.194Z,55.54
2017-10-21T05:26:14.187Z,55.31
2017-10-21T05:27:14.167Z,55.70
2017-10-21T05:28:14.154Z,55.51
2017-10-21T05:29:14.140Z,55.34
2017-10-21T05:30:14.126Z,54.76
2017-10-21T05:31:14.112Z,55.22
2017-10-21T05:32:14.098Z,54.35
2017-10-21T05:33:14.085Z,53.48
2017-10-21T05:34:14.075Z,54.35
2017-10-21T05:35:14.056Z,54.74
2017-10-21T05:36:14.043Z,54.25
2017-10-21T05:37:14.031Z,54.38
2017-10-21T05:38:14.016Z,53.87
2017-10-21T05:39:14.001Z,54.57
2017-10-21T05:40:13.987Z,56.11
2017-10-21T05:41:13.974Z,55.15
2017-10-21T05:42:13.961Z,55.15
2017-10-21T05:43:13.945Z,55.05
2017-10-21T05:44:13.932Z,55.15
2017-10-21T05:45:13.918Z,54.47
2017-10-21T05:46:13.905Z,54.86
2017-10-21T05:47:13.889Z,54.76
2017-10-21T05:48:13.876Z,54.38
2017-10-21T05:49:13.863Z,53.67
2017-10-21T05:50:13.849Z,53.67
2017-10-21T05:51:13.839Z,53.48
2017-10-21T05:52:13.821Z,54.93
2017-10-21T05:53:13.807Z,54.25
2017-10-21T05:54:13.794Z,54.09
2017-10-21T05:55:13.779Z,54.76
2017-10-21T05:56:13.770Z,54.18
2017-10-21T05:57:13.752Z,53.29
2017-10-21T05:58:13.739Z,52.81
2017-10-21T05:59:13.724Z,52.91
2017-10-21T06:00:13.710Z,52.91
2017-10-21T06:01:13.697Z,53.48
2017-10-21T06:02:13.684Z,53.80
2017-10-21T06:03:13.669Z,54.25
2017-10-21T06:04:13.655Z,53.89
2017-10-21T06:05:13.641Z,54.57
2017-10-21T06:06:13.629Z,54.76
2017-10-21T06:07:13.613Z,54.96
2017-10-21T06:08:13.603Z,53.80
2017-10-21T06:09:13.587Z,53.70
2017-10-21T06:10:13.573Z,54.96
2017-10-21T06:11:13.559Z,53.41
2017-10-21T06:12:13.545Z,53.89
2017-10-21T06:13:13.532Z,53.22
2017-10-21T06:14:13.518Z,53.19
2017-10-21T06:15:13.504Z,52.52
2017-10-21T06:16:13.490Z,52.91
2017-10-21T06:17:13.476Z,53.29
2017-10-21T06:18:13.462Z,52.52
2017-10-21T06:19:13.448Z,52.42
2017-10-21T06:20:13.434Z,53.67
2017-10-21T06:21:13.421Z,52.81
2017-10-21T06:22:13.408Z,53.48
2017-10-21T06:23:13.393Z,53.77
2017-10-21T06:24:13.380Z,54.06
2017-10-21T06:25:13.367Z,53.96
2017-10-21T06:26:13.351Z,53.96
2017-10-21T06:27:13.338Z,53.29
2017-10-21T06:28:13.324Z,53.77
2017-10-21T06:29:13.312Z,53.87
2017-10-21T06:30:13.300Z,53.67
2017-10-21T06:31:13.283Z,53.39
2017-10-21T06:32:13.270Z,54.44
2017-10-21T06:33:13.256Z,53.41
2017-10-21T06:34:13.243Z,52.91
2017-10-21T06:35:13.228Z,52.52
2017-10-21T06:36:13.215Z,52.91
2017-10-21T06:37:13.201Z,53.77
2017-10-21T06:38:13.187Z,53.96
2017-10-21T06:39:13.177Z,53.87
2017-10-21T06:40:13.159Z,53.58
2017-10-21T06:41:13.146Z,53.41
2017-10-21T06:42:13.137Z,54.47
2017-10-21T06:43:13.118Z,53.99
2017-10-21T06:44:13.104Z,53.58
2017-10-21T06:45:13.091Z,53.29
2017-10-21T06:46:13.078Z,52.71
2017-10-21T06:47:13.063Z,54.06
2017-10-21T06:48:13.049Z,53.19
2017-10-21T06:49:13.036Z,52.81
2017-10-21T06:50:13.022Z,53.96
2017-10-21T06:51:13.008Z,53.67
2017-10-21T06:52:12.995Z,52.71
2017-10-21T06:53:12.981Z,52.91
2017-10-21T06:54:12.967Z,53.48
2017-10-21T06:55:12.952Z,52.42
2017-10-21T06:56:12.940Z,52.71
2017-10-21T06:57:12.925Z,53.99
2017-10-21T06:58:12.912Z,53.67
2017-10-21T06:59:12.898Z,53.61
2017-10-21T07:00:12.884Z,53.58
2017-10-21T07:01:12.871Z,53.13
2017-10-21T07:02:12.857Z,52.52
2017-10-21T07:03:12.843Z,53.39
2017-10-21T07:04:12.829Z,53.67
2017-10-21T07:05:12.814Z,53.48
2017-10-21T07:06:12.802Z,53.70
2017-10-21T07:07:12.792Z,53.48
2017-10-21T07:08:12.774Z,53.89
2017-10-21T07:09:12.763Z,53.70
2017-10-21T07:10:12.746Z,53.67
2017-10-21T07:11:12.732Z,54.09
2017-10-21T07:12:12.719Z,53.77
2017-10-21T07:13:12.704Z,53.77
2017-10-21T07:14:12.691Z,53.89
2017-10-21T07:15:12.682Z,54.06
2017-10-21T07:16:12.663Z,53.87
2017-10-21T07:17:12.649Z,53.67
2017-10-21T07:18:12.635Z,54.06
2017-10-21T07:19:12.622Z,53.87
2017-10-21T07:20:12.609Z,54.54
2017-10-21T07:21:12.595Z,54.06
2017-10-21T07:22:12.581Z,54.35
2017-10-21T07:23:12.568Z,54.18
2017-10-21T07:24:12.554Z,54.18
2017-10-21T07:25:12.544Z,54.74
2017-10-21T07:26:12.527Z,54.44
2017-10-21T07:27:12.513Z,54.83
2017-10-21T07:28:12.499Z,55.70
2017-10-21T07:29:12.485Z,55.24
2017-10-21T07:30:12.471Z,55.31
2017-10-21T07:31:12.458Z,56.09
2017-10-21T07:32:12.443Z,54.93
2017-10-21T07:33:12.430Z,56.01
2017-10-21T07:34:12.417Z,56.37
2017-10-21T07:35:12.402Z,55.54
2017-10-21T07:36:12.438Z,55.70
2017-10-21T07:37:12.376Z,56.59
2017-10-21T07:38:12.362Z,56.59
2017-10-21T07:39:12.347Z,56.40
2017-10-21T07:40:12.334Z,56.30
2017-10-21T07:41:12.321Z,56.40
2017-10-21T07:42:12.308Z,56.47
2017-10-21T07:43:12.292Z,56.95
2017-10-21T07:44:12.278Z,57.92
2017-10-21T07:45:12.267Z,56.76
2017-10-21T07:46:12.251Z,56.98
2017-10-21T07:47:12.236Z,57.05
2017-10-21T07:48:12.224Z,57.17
2017-10-21T07:49:12.211Z,57.82
2017-10-21T07:50:12.198Z,57.05
2017-10-21T07:51:12.216Z,57.82
2017-10-21T07:52:12.169Z,57.75
2017-10-21T07:53:12.154Z,57.14
2017-10-21T07:54:12.143Z,57.72
2017-10-21T07:55:12.128Z,57.72
2017-10-21T07:56:12.114Z,57.82
2017-10-21T07:57:12.104Z,58.23
2017-10-21T07:58:12.088Z,58.30
2017-10-21T07:59:12.073Z,57.43
2017-10-21T08:00:12.058Z,57.62
2017-10-21T08:01:12.046Z,57.62
2017-10-21T08:02:12.032Z,56.57
2017-10-21T08:03:12.018Z,57.62
2017-10-21T08:04:12.005Z,57.34
2017-10-21T08:05:11.991Z,56.95
2017-10-21T08:06:11.977Z,57.24
2017-10-21T08:07:11.964Z,56.76
2017-10-21T08:08:11.949Z,56.66
2017-10-21T08:09:11.935Z,56.95
2017-10-21T08:10:11.922Z,56.57
2017-10-21T08:11:11.907Z,57.05
2017-10-21T08:12:11.895Z,56.47
2017-10-21T08:13:11.881Z,57.72
2017-10-21T08:14:11.868Z,57.56
2017-10-21T08:15:11.855Z,57.46
2017-10-21T08:16:11.839Z,57.27
2017-10-21T08:17:11.825Z,57.24
2017-10-21T08:18:11.813Z,57.75
2017-10-21T08:19:11.798Z,56.95
2017-10-21T08:20:11.786Z,57.82
2017-10-21T08:21:11.776Z,57.14
2017-10-21T08:22:11.757Z,57.53
2017-10-21T08:23:11.751Z,57.24
2017-10-21T08:24:11.729Z,56.27
2017-10-21T08:25:11.716Z,56.76
2017-10-21T08:26:11.702Z,56.18
2017-10-21T08:27:11.687Z,56.57
2017-10-21T08:28:11.674Z,58.30
2017-10-21T08:29:11.661Z,57.34
2017-10-21T08:30:11.648Z,57.82
2017-10-21T08:31:11.633Z,57.34
2017-10-21T08:32:11.618Z,56.79
2017-10-21T08:33:11.605Z,56.66
2017-10-21T08:34:11.592Z,56.18
2017-10-21T08:35:11.576Z,56.79
2017-10-21T08:36:11.564Z,56.57
2017-10-21T08:37:11.550Z,56.76
2017-10-21T08:38:11.536Z,57.14
2017-10-21T08:39:11.524Z,56.57
2017-10-21T08:40:11.509Z,56.47
2017-10-21T08:41:11.496Z,56.47
2017-10-21T08:42:11.482Z,56.85
2017-10-21T08:43:11.468Z,56.47
2017-10-21T08:44:11.453Z,57.05
2017-10-21T08:45:11.440Z,56.57
2017-10-21T08:46:11.427Z,57.05
2017-10-21T08:47:11.413Z,56.95
2017-10-21T08:48:11.399Z,56.66
2017-10-21T08:49:11.386Z,56.85
2017-10-21T08:50:11.372Z,56.47
2017-10-21T08:51:11.358Z,56.47
2017-10-21T08:52:11.345Z,57.14
2017-10-21T08:53:11.331Z,56.57
2017-10-21T08:54:11.317Z,56.95
2017-10-21T08:55:11.303Z,56.57
2017-10-21T08:56:11.289Z,56.95
2017-10-21T08:57:11.276Z,57.05
2017-10-21T08:58:11.262Z,56.27
2017-10-21T08:59:11.247Z,56.59
2017-10-21T09:00:11.234Z,56.76
2017-10-21T09:01:11.221Z,56.85
2017-10-21T09:02:11.207Z,56.59
2017-10-21T09:03:11.193Z,56.76
2017-10-21T09:04:11.179Z,56.11
2017-10-21T09:05:11.166Z,56.85
2017-10-21T09:06:11.152Z,56.88
2017-10-21T09:07:11.138Z,56.98
2017-10-21T09:08:11.125Z,56.76
2017-10-21T09:09:11.111Z,56.59
2017-10-21T09:10:11.097Z,56.85
2017-10-21T09:11:11.081Z,56.88
2017-10-21T09:12:11.069Z,56.76
2017-10-21T09:13:11.057Z,56.66
2017-10-21T09:14:11.042Z,56.57
2017-10-21T09:15:11.027Z,56.37
2017-10-21T09:16:11.014Z,56.66
2017-10-21T09:17:11.001Z,56.76
2017-10-21T09:18:11.087Z,56.85
2017-10-21T09:19:10.972Z,56.57
2017-10-21T09:20:10.958Z,56.66
2017-10-21T09:21:10.945Z,56.76
2017-10-21T09:22:10.932Z,56.76
2017-10-21T09:23:11.017Z,56.49
2017-10-21T09:24:10.904Z,56.66
2017-10-21T09:25:10.890Z,56.18
2017-10-21T09:26:10.877Z,56.66
2017-10-21T09:27:10.862Z,56.47
2017-10-21T09:28:10.849Z,56.66
2017-10-21T09:29:10.836Z,56.57
2017-10-21T09:30:10.822Z,56.95
2017-10-21T09:31:10.808Z,56.66
2017-10-21T09:32:10.793Z,56.57
2017-10-21T09:33:10.781Z,56.49
2017-10-21T09:34:10.767Z,56.76
2017-10-21T09:35:10.752Z,56.57
2017-10-21T09:36:10.739Z,56.21
2017-10-21T09:37:10.733Z,56.57
2017-10-21T09:38:10.712Z,56.47
2017-10-21T09:39:10.698Z,56.49
2017-10-21T09:40:10.684Z,56.49
2017-10-21T09:41:10.670Z,56.85
2017-10-21T09:42:10.658Z,56.49
2017-10-21T09:43:10.648Z,56.59
2017-10-21T09:44:10.629Z,55.92
2017-10-21T09:45:10.616Z,56.01
2017-10-21T09:46:10.603Z,56.69
2017-10-21T09:47:10.588Z,56.59
2017-10-21T09:48:10.575Z,56.59
2017-10-21T09:49:10.561Z,56.30
2017-10-21T09:50:10.549Z,56.59
2017-10-21T09:51:10.533Z,55.73
2017-10-21T09:52:10.520Z,56.21
2017-10-21T09:53:10.507Z,56.30
2017-10-21T09:54:10.592Z,55.63
2017-10-21T09:55:10.478Z,56.88
2017-10-21T09:56:10.486Z,55.82
2017-10-21T09:57:10.452Z,56.30
2017-10-21T09:58:10.439Z,56.30
2017-10-21T09:59:10.423Z,56.49
2017-10-21T10:00:10.411Z,56.69
2017-10-21T10:01:10.403Z,56.49
2017-10-21T10:02:10.384Z,56.59
2017-10-21T10:03:10.369Z,56.40
2017-10-21T10:04:10.356Z,56.49
2017-10-21T10:05:10.349Z,56.59
2017-10-21T10:06:10.329Z,56.21
2017-10-21T10:07:10.314Z,56.30
2017-10-21T10:08:10.301Z,56.01
2017-10-21T10:09:10.287Z,55.63
2017-10-21T10:10:10.275Z,55.92
2017-10-21T10:11:10.260Z,55.82
2017-10-21T10:12:10.250Z,55.18
2017-10-21T10:13:10.233Z,55.46
2017-10-21T10:14:10.221Z,55.56
2017-10-21T10:15:10.206Z,54.79
2017-10-21T10:16:10.193Z,54.62
2017-10-21T10:17:10.179Z,54.62
2017-10-21T10:18:10.166Z,53.95
2017-10-21T10:19:10.152Z,53.56
2017-10-21T10:20:10.139Z,53.95
2017-10-21T10:21:10.125Z,54.24
2017-10-21T10:22:10.114Z,53.56
2017-10-21T10:23:10.104Z,54.05
2017-10-21T10:24:10.085Z,53.66
2017-10-21T10:25:10.072Z,53.66
2017-10-21T10:26:10.062Z,54.33
2017-10-21T10:27:10.045Z,54.21
2017-10-21T10:28:10.033Z,53.83
2017-10-21T10:29:10.019Z,54.21
2017-10-21T10:30:10.006Z,54.60
2017-10-21T10:31:09.992Z,54.79
2017-10-21T10:32:09.978Z,54.31
2017-10-21T10:33:09.968Z,54.60
2017-10-21T10:34:09.954Z,54.88
2017-10-21T10:35:09.938Z,54.31
2017-10-21T10:36:09.926Z,54.79
2017-10-21T10:37:09.913Z,54.98
2017-10-21T10:38:09.899Z,54.91
2017-10-21T10:39:09.886Z,54.72
2017-10-21T10:40:09.871Z,54.82
2017-10-21T10:41:09.860Z,54.62
2017-10-21T10:42:09.846Z,54.88
2017-10-21T10:43:09.832Z,55.27
2017-10-21T10:44:09.820Z,54.91
2017-10-21T10:45:09.807Z,54.62
2017-10-21T10:46:09.793Z,55.20
2017-10-21T10:47:09.780Z,55.20
2017-10-21T10:48:09.766Z,54.91
2017-10-21T10:49:09.753Z,55.18
2017-10-21T10:50:09.741Z,55.20
2017-10-21T10:51:09.726Z,55.30
2017-10-21T10:52:09.712Z,55.59
2017-10-21T10:53:09.701Z,55.20
2017-10-21T10:54:09.687Z,55.01
2017-10-21T10:55:09.673Z,54.72
2017-10-21T10:56:09.663Z,54.82
2017-10-21T10:57:09.646Z,54.72
2017-10-21T10:58:09.633Z,54.75
2017-10-21T10:59:09.620Z,54.53
2017-10-21T11:00:09.606Z,54.33
2017-10-21T11:01:09.593Z,54.33
2017-10-21T11:02:09.581Z,54.24
2017-10-21T11:03:09.568Z,54.43
2017-10-21T11:04:09.553Z,54.43
2017-10-21T11:05:09.541Z,54.43
2017-10-21T11:06:09.527Z,54.24
2017-10-21T11:07:09.513Z,54.14
2017-10-21T11:08:09.501Z,53.59
2017-10-21T11:09:09.488Z,53.78
2017-10-21T11:10:09.475Z,53.01
2017-10-21T11:11:09.467Z,52.75
2017-10-21T11:12:09.450Z,52.45
2017-10-21T11:13:09.437Z,52.07
2017-10-21T11:14:09.425Z,52.07
2017-10-21T11:15:09.411Z,51.87
2017-10-21T11:16:09.399Z,51.68
2017-10-21T11:17:09.391Z,51.68
2017-10-21T11:18:09.379Z,51.20
2017-10-21T11:19:09.364Z,51.49
2017-10-21T11:20:09.350Z,51.20
2017-10-21T11:21:09.338Z,51.39
2017-10-21T11:22:09.326Z,51.10
2017-10-21T11:23:09.316Z,51.01
2017-10-21T11:24:09.302Z,50.91
2017-10-21T11:25:09.290Z,51.01
2017-10-21T11:26:09.284Z,51.59
2017-10-21T11:27:09.265Z,51.37
2017-10-21T11:28:09.254Z,51.27
2017-10-21T11:29:09.241Z,51.97
2017-10-21T11:30:09.230Z,51.46
2017-10-21T11:31:09.217Z,51.39
2017-10-21T11:32:09.205Z,51.29
2017-10-21T11:33:09.192Z,51.10
2017-10-21T11:34:09.181Z,50.52
2017-10-21T11:35:09.168Z,50.62
2017-10-21T11:36:09.156Z,50.62
2017-10-21T11:37:09.144Z,50.81
2017-10-21T11:38:09.134Z,50.81
2017-10-21T11:39:09.120Z,50.62
2017-10-21T11:40:09.110Z,50.71
2017-10-21T11:41:09.095Z,50.43
2017-10-21T11:42:09.084Z,50.81
2017-10-21T11:43:09.072Z,50.93
2017-10-21T11:44:09.059Z,50.84
2017-10-21T11:45:09.048Z,49.87
2017-10-21T11:46:09.036Z,50.45
2017-10-21T11:47:09.022Z,50.16
2017-10-21T11:48:09.011Z,49.97
2017-10-21T11:49:08.999Z,49.87
2017-10-21T11:50:08.997Z,50.07
2017-10-21T11:51:08.975Z,49.87
2017-10-21T11:52:08.966Z,49.97
2017-10-21T11:53:08.951Z,49.77
2017-10-21T11:54:08.940Z,49.68
2017-10-21T11:55:08.928Z,49.97
2017-10-21T11:56:08.916Z,49.77
2017-10-21T11:57:08.904Z,49.97
2017-10-21T11:58:08.893Z,49.77
2017-10-21T11:59:08.878Z,50.16
2017-10-21T12:00:08.868Z,50.13
2017-10-21T12:01:08.857Z,50.13
2017-10-21T12:02:08.845Z,50.33
2017-10-21T12:03:08.833Z,50.04
2017-10-21T12:04:08.834Z,50.91
2017-10-21T12:05:08.808Z,50.43
2017-10-21T12:06:08.797Z,50.81
2017-10-21T12:07:08.784Z,50.81
2017-10-21T12:08:08.772Z,51.01
2017-10-21T12:09:08.760Z,51.01
2017-10-21T12:10:08.748Z,51.01
2017-10-21T12:11:08.741Z,51.10
2017-10-21T12:12:08.724Z,51.10
2017-10-21T12:13:08.711Z,51.29
2017-10-21T12:14:08.700Z,51.59
2017-10-21T12:15:08.686Z,51.59
2017-10-21T12:16:08.673Z,51.59
2017-10-21T12:17:08.661Z,51.87
2017-10-21T12:18:08.654Z,51.97
2017-10-21T12:19:08.637Z,52.07
2017-10-21T12:20:08.623Z,51.87
2017-10-21T12:21:08.612Z,51.97
2017-10-21T12:22:08.599Z,51.97
2017-10-21T12:23:08.584Z,51.75
2017-10-21T12:24:08.574Z,51.87
2017-10-21T12:25:08.560Z,51.95
2017-10-21T12:26:08.548Z,52.62
2017-10-21T12:27:08.536Z,52.65
2017-10-21T12:28:08.523Z,52.43
2017-10-21T12:29:08.510Z,52.81
2017-10-21T12:30:08.498Z,52.62
2017-10-21T12:31:08.484Z,52.62
2017-10-21T12:32:08.472Z,52.53
2017-10-21T12:33:08.460Z,52.62
2017-10-21T12:34:08.447Z,53.01
2017-10-21T12:35:08.434Z,52.55
2017-10-21T12:36:08.421Z,53.03
2017-10-21T12:37:08.408Z,52.55
2017-10-21T12:38:08.397Z,52.39
2017-10-21T12:39:08.383Z,51.81
2017-10-21T12:40:08.370Z,52.09
2017-10-21T12:41:08.357Z,52.09
2017-10-21T12:42:08.345Z,51.61
2017-10-21T12:43:08.332Z,51.81
2017-10-21T12:44:08.320Z,52.00
2017-10-21T12:45:08.309Z,52.00
2017-10-21T12:46:08.297Z,51.51
2017-10-21T12:47:08.281Z,51.44
2017-10-21T12:48:08.269Z,50.86
2017-10-21T12:49:08.257Z,51.44
2017-10-21T12:50:08.245Z,51.23
2017-10-21T12:51:08.232Z,51.23
2017-10-21T12:52:08.220Z,51.25